Time;durP1;ratioP1;P1;durP2;ratioP2;P2;SDS_P1;SDS_P2;PMS_P1;PMS_P2;Temp;Humidity;BMP_temperature;BMP_pressure;BME280_temperature;BME280_humidity;BME280_pressure;Samples;Min_cycle;Max_cycle;Signal;HPM_P1;HPM_P2
2022/04/10 00:02:00;;;;;;;6.82;3.20;;;;;;;;;;4956689;29;20033;-69
2022/04/10 00:04:26;;;;;;;5.88;3.00;;;;;;;;;;4953028;29;20057;-69
2022/04/10 00:06:53;;;;;;;6.78;3.45;;;;;;;;;;4952929;29;20042;-69
2022/04/10 00:09:19;;;;;;;8.40;3.13;;;;;;;;;;4954381;29;20041;-69
2022/04/10 00:11:46;;;;;;;10.38;2.92;;;;;;;;;;4955172;29;20039;-69
2022/04/10 00:14:12;;;;;;;10.73;2.85;;;;;;;;;;4953051;29;20065;-69
2022/04/10 00:16:39;;;;;;;5.28;2.40;;;;;;;;;;4939296;29;20101;-69
2022/04/10 00:19:05;;;;;;;8.48;2.78;;;;;;;;;;4952992;29;20019;-69
2022/04/10 00:21:32;;;;;;;8.65;2.80;;;;;;;;;;4952887;29;20022;-69
2022/04/10 00:23:59;;;;;;;5.93;2.75;;;;;;;;;;4956432;29;20028;-68
2022/04/10 00:26:25;;;;;;;7.38;2.42;;;;;;;;;;4953278;29;20023;-69
2022/04/10 00:28:51;;;;;;;7.60;2.55;;;;;;;;;;4952115;29;20054;-69
2022/04/10 00:31:18;;;;;;;5.97;2.65;;;;;;;;;;4952531;29;20025;-69
2022/04/10 00:33:44;;;;;;;7.28;2.67;;;;;;;;;;4952553;29;20023;-69
2022/04/10 00:36:11;;;;;;;11.10;2.75;;;;;;;;;;4955252;29;20029;-69
2022/04/10 00:38:37;;;;;;;5.90;2.40;;;;;;;;;;4953879;29;20452;-69
2022/04/10 00:41:03;;;;;;;5.55;2.67;;;;;;;;;;4952838;29;20034;-69
2022/04/10 00:43:34;;;;;;;6.95;2.47;;;;;;;;;;4951986;29;20027;-69
2022/04/10 00:46:01;;;;;;;7.05;2.40;;;;;;;;;;4952199;29;20027;-69
2022/04/10 00:48:27;;;;;;;6.57;2.90;;;;;;;;;;4952997;29;20035;-69
2022/04/10 00:53:40;;;;;;;6.82;2.35;;;;;;;;;;4953089;29;20035;-69
2022/04/10 00:56:06;;;;;;;7.22;2.28;;;;;;;;;;4955178;29;21147;-69
2022/04/10 00:58:33;;;;;;;6.47;2.28;;;;;;;;;;4951767;29;20026;-69
2022/04/10 01:00:59;;;;;;;6.75;2.20;;;;;;;;;;4952018;29;20031;-69
2022/04/10 01:03:25;;;;;;;7.25;2.30;;;;;;;;;;4952771;29;20081;-69
2022/04/10 01:05:52;;;;;;;4.43;1.83;;;;;;;;;;4954946;29;20400;-69
2022/04/10 01:08:18;;;;;;;7.10;2.30;;;;;;;;;;4952214;28;20043;-68
2022/04/10 01:10:45;;;;;;;6.68;2.42;;;;;;;;;;4951585;29;20090;-69
2022/04/10 01:13:11;;;;;;;5.10;2.13;;;;;;;;;;4951788;29;20041;-69
2022/04/10 01:15:38;;;;;;;3.03;1.95;;;;;;;;;;4951764;29;20046;-69
2022/04/10 01:18:06;;;;;;;6.80;2.20;;;;;;;;;;4955417;29;20042;-69
2022/04/10 01:20:33;;;;;;;4.25;2.03;;;;;;;;;;4952985;29;20027;-69
2022/04/10 01:22:59;;;;;;;4.97;2.30;;;;;;;;;;4951887;29;20027;-69
2022/04/10 01:25:25;;;;;;;5.70;2.17;;;;;;;;;;4951263;29;20031;-68
2022/04/10 01:27:52;;;;;;;3.97;2.10;;;;;;;;;;4951493;29;20039;-69
2022/04/10 01:30:18;;;;;;;9.40;2.47;;;;;;;;;;4953142;29;20411;-69
2022/04/10 01:32:45;;;;;;;9.43;2.45;;;;;;;;;;4953704;29;20473;-69
2022/04/10 01:35:11;;;;;;;7.90;2.70;;;;;;;;;;4951744;29;20065;-68
2022/04/10 01:37:37;;;;;;;6.18;2.38;;;;;;;;;;4951353;29;20020;-69
2022/04/10 01:40:04;;;;;;;7.57;2.45;;;;;;;;;;4950940;29;20038;-69
2022/04/10 01:42:30;;;;;;;5.80;2.40;;;;;;;;;;4951400;29;20425;-69
2022/04/10 01:44:57;;;;;;;7.57;2.90;;;;;;;;;;4954342;29;20034;-69
2022/04/10 01:47:23;;;;;;;7.80;2.75;;;;;;;;;;4950717;29;20584;-69
2022/04/10 01:49:50;;;;;;;9.65;3.40;;;;;;;;;;4951063;29;20030;-68
2022/04/10 01:52:16;;;;;;;13.88;5.28;;;;;;;;;;4951483;29;20033;-69
2022/04/10 01:54:42;;;;;;;4.22;2.53;;;;;;;;;;4950682;29;20040;-68
2022/04/10 01:57:10;;;;;;;8.77;2.20;;;;;;;;;;4954071;29;20033;-69
2022/04/10 01:59:36;;;;;;;8.77;2.65;;;;;;;;;;4952092;29;20031;-69
2022/04/10 02:02:02;;;;;;;7.68;2.13;;;;;;;;;;4951241;29;20027;-69
2022/04/10 02:04:29;;;;;;;9.00;3.15;;;;;;;;;;4951270;29;20019;-69
2022/04/10 02:06:55;;;;;;;7.85;2.65;;;;;;;;;;4950967;29;20404;-68
2022/04/10 02:09:22;;;;;;;10.23;2.35;;;;;;;;;;4951781;29;20094;-69
2022/04/10 02:11:49;;;;;;;5.55;1.67;;;;;;;;;;4952584;29;20023;-69
2022/04/10 02:14:16;;;;;;;10.75;2.60;;;;;;;;;;4951278;29;20035;-68
2022/04/10 02:16:42;;;;;;;6.40;2.17;;;;;;;;;;4950980;29;20027;-69
2022/04/10 02:19:08;;;;;;;7.32;2.08;;;;;;;;;;4950613;29;20027;-69
2022/04/10 02:21:36;;;;;;;6.25;2.25;;;;;;;;;;4950663;28;20020;-68
2022/04/10 02:24:02;;;;;;;5.47;2.35;;;;;;;;;;4938696;29;20027;-69
2022/04/10 02:26:28;;;;;;;6.90;2.50;;;;;;;;;;4951126;29;20019;-68
2022/04/10 02:28:55;;;;;;;8.57;2.75;;;;;;;;;;4950373;29;20059;-69
2022/04/10 02:31:21;;;;;;;17.35;8.18;;;;;;;;;;4950455;29;20034;-68
2022/04/10 02:33:48;;;;;;;22.45;9.15;;;;;;;;;;4950451;29;20027;-69
2022/04/10 02:36:16;;;;;;;9.95;2.95;;;;;;;;;;4952780;29;20027;-68
2022/04/10 02:38:43;;;;;;;8.07;3.00;;;;;;;;;;4952001;29;20026;-69
2022/04/10 02:41:10;;;;;;;7.75;2.67;;;;;;;;;;4950768;29;20035;-69
2022/04/10 02:43:38;;;;;;;12.20;3.25;;;;;;;;;;4950292;29;20023;-69
2022/04/10 02:46:04;;;;;;;5.97;2.00;;;;;;;;;;4950170;29;20027;-68
2022/04/10 02:48:31;;;;;;;4.05;2.00;;;;;;;;;;4950117;29;20038;-69
2022/04/10 02:50:57;;;;;;;5.82;2.20;;;;;;;;;;4953714;29;20037;-69
2022/04/10 02:53:23;;;;;;;4.95;2.05;;;;;;;;;;4950690;29;20089;-69
2022/04/10 02:55:50;;;;;;;5.65;2.10;;;;;;;;;;4949952;29;20054;-68
2022/04/10 02:58:16;;;;;;;5.05;2.33;;;;;;;;;;4949960;29;20497;-69
2022/04/10 03:00:42;;;;;;;7.00;2.50;;;;;;;;;;4949751;29;20035;-68
2022/04/10 03:03:09;;;;;;;5.90;2.13;;;;;;;;;;4952851;29;20024;-69
2022/04/10 03:05:35;;;;;;;7.43;2.25;;;;;;;;;;4951668;29;20031;-69
2022/04/10 03:08:01;;;;;;;4.72;2.00;;;;;;;;;;4950031;29;20027;-69
2022/04/10 03:10:28;;;;;;;4.20;2.33;;;;;;;;;;4949694;29;20069;-69
2022/04/10 03:12:54;;;;;;;5.50;2.10;;;;;;;;;;4949786;29;20029;-69
2022/04/10 03:15:20;;;;;;;5.60;2.40;;;;;;;;;;4951007;29;20039;-68
2022/04/10 03:17:47;;;;;;;8.50;2.10;;;;;;;;;;4952266;29;20035;-69
2022/04/10 03:20:13;;;;;;;9.30;2.10;;;;;;;;;;4950243;29;20035;-68
2022/04/10 03:22:40;;;;;;;4.32;1.73;;;;;;;;;;4949238;29;20473;-69
2022/04/10 03:25:07;;;;;;;5.90;1.85;;;;;;;;;;4949650;29;20023;-69
2022/04/10 03:27:33;;;;;;;6.80;2.00;;;;;;;;;;4949682;29;20172;-69
2022/04/10 03:30:00;;;;;;;5.43;1.85;;;;;;;;;;4951851;29;20027;-69
2022/04/10 03:32:26;;;;;;;5.05;2.20;;;;;;;;;;4951707;28;20529;-69
2022/04/10 03:34:52;;;;;;;4.35;2.00;;;;;;;;;;4953435;29;20489;-69
2022/04/10 03:37:19;;;;;;;6.95;2.08;;;;;;;;;;4953171;29;20023;-69
2022/04/10 03:39:45;;;;;;;2.65;1.58;;;;;;;;;;4950566;29;20031;-69
2022/04/10 03:42:11;;;;;;;6.22;2.10;;;;;;;;;;4956036;29;20495;-68
2022/04/10 03:44:38;;;;;;;6.65;1.98;;;;;;;;;;4955000;29;20031;-68
2022/04/10 03:47:04;;;;;;;3.72;1.90;;;;;;;;;;4953971;29;20027;-68
2022/04/10 03:49:31;;;;;;;4.65;1.98;;;;;;;;;;4953327;29;20402;-69
2022/04/10 03:51:57;;;;;;;4.60;1.98;;;;;;;;;;4952929;29;20030;-69
2022/04/10 03:54:23;;;;;;;5.93;2.50;;;;;;;;;;4954134;29;20521;-69
2022/04/10 03:56:50;;;;;;;9.20;2.95;;;;;;;;;;4956098;29;20388;-69
2022/04/10 03:59:17;;;;;;;4.78;2.72;;;;;;;;;;4953586;29;20057;-68
2022/04/10 04:01:43;;;;;;;6.95;2.22;;;;;;;;;;4953273;29;20026;-68
2022/04/10 04:04:09;;;;;;;5.35;2.25;;;;;;;;;;4953065;29;20032;-69
2022/04/10 04:06:35;;;;;;;9.43;3.00;;;;;;;;;;4953108;29;20023;-69
2022/04/10 04:09:02;;;;;;;7.78;2.58;;;;;;;;;;4956674;29;20030;-69
2022/04/10 04:11:28;;;;;;;7.18;2.50;;;;;;;;;;4953683;29;20035;-68
2022/04/10 04:13:55;;;;;;;4.38;2.25;;;;;;;;;;4952727;29;20439;-69
2022/04/10 04:16:21;;;;;;;4.47;2.25;;;;;;;;;;4952827;29;20393;-69
2022/04/10 04:18:48;;;;;;;5.38;2.40;;;;;;;;;;4952756;29;20020;-68
2022/04/10 04:21:14;;;;;;;7.53;2.30;;;;;;;;;;4954726;29;20027;-68
2022/04/10 04:23:41;;;;;;;4.53;2.55;;;;;;;;;;4954736;29;20031;-69
2022/04/10 04:26:07;;;;;;;5.80;2.53;;;;;;;;;;4953073;29;20065;-68
2022/04/10 04:28:36;;;;;;;7.15;2.45;;;;;;;;;;4952448;29;20047;-69
2022/04/10 04:31:02;;;;;;;7.75;2.55;;;;;;;;;;4952597;29;20035;-69
2022/04/10 04:33:28;;;;;;;5.38;1.98;;;;;;;;;;4952961;29;20030;-68
2022/04/10 04:35:55;;;;;;;4.10;2.05;;;;;;;;;;4955583;29;20041;-69
2022/04/10 04:38:21;;;;;;;6.22;2.08;;;;;;;;;;4952938;29;20038;-69
2022/04/10 04:40:47;;;;;;;5.68;2.20;;;;;;;;;;4952485;29;20041;-68
2022/04/10 04:43:13;;;;;;;5.70;1.67;;;;;;;;;;4951620;28;20026;-69
2022/04/10 04:45:40;;;;;;;4.05;2.22;;;;;;;;;;4951996;29;20386;-68
2022/04/10 04:48:06;;;;;;;7.13;2.00;;;;;;;;;;4955744;29;20031;-68
2022/04/10 04:50:33;;;;;;;7.85;3.78;;;;;;;;;;4952919;29;20015;-69
2022/04/10 04:52:59;;;;;;;12.20;5.20;;;;;;;;;;4956046;29;20042;-68
2022/04/10 04:55:26;;;;;;;13.68;5.32;;;;;;;;;;4952121;29;20023;-69
2022/04/10 04:57:52;;;;;;;18.38;6.70;;;;;;;;;;4952411;29;20026;-68
2022/04/10 05:00:19;;;;;;;18.30;6.93;;;;;;;;;;4953720;29;20020;-68
2022/04/10 05:02:45;;;;;;;19.83;7.35;;;;;;;;;;4954334;29;20031;-68
2022/04/10 05:05:12;;;;;;;20.08;6.57;;;;;;;;;;4952297;29;20038;-69
2022/04/10 05:07:38;;;;;;;16.38;5.63;;;;;;;;;;4951897;29;20497;-68
2022/04/10 05:10:05;;;;;;;14.63;4.32;;;;;;;;;;4951782;29;20023;-68
2022/04/10 05:12:32;;;;;;;11.48;3.97;;;;;;;;;;4951876;29;20026;-68
2022/04/10 05:14:59;;;;;;;10.77;3.50;;;;;;;;;;4955247;29;20043;-68
2022/04/10 05:17:28;;;;;;;9.88;3.47;;;;;;;;;;4952037;29;20032;-68
2022/04/10 05:19:54;;;;;;;8.43;3.60;;;;;;;;;;4938355;29;20031;-69
2022/04/10 05:22:21;;;;;;;10.23;2.90;;;;;;;;;;4951676;29;20023;-68
2022/04/10 05:24:47;;;;;;;8.88;2.78;;;;;;;;;;4951642;29;20023;-68
2022/04/10 05:27:13;;;;;;;5.43;2.13;;;;;;;;;;4953749;29;20026;-69
2022/04/10 05:29:40;;;;;;;5.32;1.90;;;;;;;;;;4953283;29;20031;-68
2022/04/10 05:32:07;;;;;;;5.28;2.10;;;;;;;;;;4951806;29;20031;-68
2022/04/10 05:34:35;;;;;;;6.30;2.20;;;;;;;;;;4951242;29;20522;-68
2022/04/10 05:37:01;;;;;;;9.77;2.60;;;;;;;;;;4951467;29;20028;-68
2022/04/10 05:39:27;;;;;;;7.50;2.47;;;;;;;;;;4951788;29;20489;-68
2022/04/10 05:41:54;;;;;;;5.80;2.50;;;;;;;;;;4954674;29;20811;-68
2022/04/10 05:44:20;;;;;;;5.88;2.00;;;;;;;;;;4952019;29;20023;-68
2022/04/10 05:46:46;;;;;;;4.20;2.17;;;;;;;;;;4951083;29;20027;-69
2022/04/10 05:49:13;;;;;;;3.10;1.88;;;;;;;;;;4951086;29;20493;-68
2022/04/10 05:51:39;;;;;;;6.05;2.40;;;;;;;;;;4951320;29;20027;-68
2022/04/10 05:54:05;;;;;;;6.07;2.70;;;;;;;;;;4954811;29;20027;-69
2022/04/10 05:56:32;;;;;;;7.57;3.15;;;;;;;;;;4951928;29;20037;-68
2022/04/10 05:58:58;;;;;;;9.27;3.60;;;;;;;;;;4951061;29;20027;-68
2022/04/10 06:01:24;;;;;;;10.82;4.82;;;;;;;;;;4950685;29;20031;-68
2022/04/10 06:03:51;;;;;;;7.55;3.42;;;;;;;;;;4950899;29;20029;-69
2022/04/10 06:06:18;;;;;;;7.32;4.22;;;;;;;;;;4952826;29;20053;-68
2022/04/10 06:08:44;;;;;;;9.10;4.63;;;;;;;;;;4953254;29;20029;-69
2022/04/10 06:11:11;;;;;;;9.82;4.75;;;;;;;;;;4951354;29;20034;-68
2022/04/10 06:13:37;;;;;;;8.60;4.00;;;;;;;;;;4950820;29;20023;-69
2022/04/10 06:16:04;;;;;;;6.85;3.42;;;;;;;;;;4950263;29;20047;-68
2022/04/10 06:18:30;;;;;;;10.23;4.70;;;;;;;;;;4950871;29;20023;-68
2022/04/10 06:20:56;;;;;;;5.65;2.92;;;;;;;;;;4954554;29;20031;-68
2022/04/10 06:23:23;;;;;;;7.35;3.20;;;;;;;;;;4953741;29;20053;-68
2022/04/10 06:25:50;;;;;;;10.27;4.53;;;;;;;;;;4950551;29;20495;-68
2022/04/10 06:28:16;;;;;;;14.27;4.97;;;;;;;;;;4950400;29;20077;-68
2022/04/10 06:30:44;;;;;;;11.40;6.20;;;;;;;;;;4950363;29;20027;-69
2022/04/10 06:33:10;;;;;;;12.38;6.25;;;;;;;;;;4953159;29;20027;-69
2022/04/10 06:35:37;;;;;;;16.55;7.88;;;;;;;;;;4942499;29;20049;-69
2022/04/10 06:38:03;;;;;;;14.15;7.90;;;;;;;;;;4950742;29;20034;-69
2022/04/10 06:40:29;;;;;;;15.15;7.60;;;;;;;;;;4950495;29;20027;-69
2022/04/10 06:42:56;;;;;;;9.18;4.60;;;;;;;;;;4950301;29;20493;-68
2022/04/10 06:45:22;;;;;;;9.48;4.15;;;;;;;;;;4951149;29;20061;-69
2022/04/10 06:47:48;;;;;;;10.20;4.72;;;;;;;;;;4953095;29;20017;-69
2022/04/10 06:50:15;;;;;;;16.60;6.28;;;;;;;;;;4951044;29;20035;-69
2022/04/10 06:52:42;;;;;;;18.30;8.80;;;;;;;;;;4950051;29;20030;-69
2022/04/10 06:55:09;;;;;;;23.33;10.30;;;;;;;;;;4949968;29;20101;-69
2022/04/10 06:57:35;;;;;;;16.95;8.95;;;;;;;;;;4950510;29;20015;-69
2022/04/10 07:00:02;;;;;;;19.40;8.70;;;;;;;;;;4953435;29;20019;-69
2022/04/10 07:02:28;;;;;;;10.88;5.10;;;;;;;;;;4950601;29;20026;-69
2022/04/10 07:04:54;;;;;;;10.45;5.28;;;;;;;;;;4950207;29;20034;-69
2022/04/10 07:07:21;;;;;;;9.60;4.28;;;;;;;;;;4949139;28;20053;-70
2022/04/10 07:09:47;;;;;;;10.00;4.35;;;;;;;;;;4950285;29;20041;-70
2022/04/10 07:12:13;;;;;;;11.98;5.32;;;;;;;;;;4952316;29;20509;-70
2022/04/10 07:14:40;;;;;;;10.65;5.50;;;;;;;;;;4941864;29;20042;-70
2022/04/10 07:17:06;;;;;;;11.93;5.82;;;;;;;;;;4953198;29;20031;-70
2022/04/10 07:19:33;;;;;;;10.57;5.72;;;;;;;;;;4949845;29;20024;-70
2022/04/10 07:24:44;;;;;;;12.68;6.57;;;;;;;;;;4949786;29;20038;-71
2022/04/10 07:27:11;;;;;;;15.32;5.63;;;;;;;;;;4952476;29;20392;-70
2022/04/10 07:29:37;;;;;;;11.45;6.38;;;;;;;;;;4950772;29;20031;-70
2022/04/10 07:32:05;;;;;;;12.95;7.72;;;;;;;;;;4950263;29;20035;-71
2022/04/10 07:34:31;;;;;;;15.23;7.10;;;;;;;;;;4949659;29;20035;-71
2022/04/10 07:36:57;;;;;;;11.77;6.45;;;;;;;;;;4949786;29;20019;-71
2022/04/10 07:39:24;;;;;;;11.82;5.93;;;;;;;;;;4950555;29;20025;-71
2022/04/10 07:41:50;;;;;;;12.93;5.60;;;;;;;;;;4952721;29;20030;-71
2022/04/10 07:44:16;;;;;;;10.18;5.10;;;;;;;;;;4950329;29;20024;-71
2022/04/10 07:49:28;;;;;;;11.68;4.93;;;;;;;;;;4949684;29;20016;-71
2022/04/10 07:51:55;;;;;;;10.93;5.63;;;;;;;;;;4949558;29;20407;-72
2022/04/10 07:54:21;;;;;;;8.02;5.15;;;;;;;;;;4950911;29;20555;-71
2022/04/10 07:56:47;;;;;;;9.68;5.40;;;;;;;;;;4951867;29;20428;-72
2022/04/10 07:59:15;;;;;;;7.53;4.68;;;;;;;;;;4953715;29;20029;-71
2022/04/10 08:01:42;;;;;;;9.02;4.78;;;;;;;;;;4949915;29;20031;-72
2022/04/10 08:04:08;;;;;;;8.60;4.97;;;;;;;;;;4949523;29;20031;-71
2022/04/10 08:06:34;;;;;;;11.35;5.43;;;;;;;;;;4949586;29;20016;-72
2022/04/10 08:09:01;;;;;;;10.30;5.15;;;;;;;;;;4953108;29;20031;-72
2022/04/10 08:11:27;;;;;;;9.38;4.65;;;;;;;;;;4949529;29;20103;-71
2022/04/10 08:13:54;;;;;;;13.48;4.47;;;;;;;;;;4949434;29;20019;-72
2022/04/10 08:16:20;;;;;;;8.55;4.53;;;;;;;;;;4940268;29;20035;-72
2022/04/10 08:18:46;;;;;;;7.28;4.35;;;;;;;;;;4951085;28;20489;-72
2022/04/10 08:21:13;;;;;;;10.40;4.07;;;;;;;;;;4955456;29;20023;-72
2022/04/10 08:23:39;;;;;;;6.72;4.32;;;;;;;;;;4954615;29;20404;-72
2022/04/10 08:26:06;;;;;;;7.78;3.90;;;;;;;;;;4952698;29;20484;-72
2022/04/10 08:28:32;;;;;;;7.68;3.80;;;;;;;;;;4952603;29;20043;-72
2022/04/10 08:30:58;;;;;;;9.75;4.50;;;;;;;;;;4953048;29;20077;-72
2022/04/10 08:33:25;;;;;;;5.95;3.47;;;;;;;;;;4953544;29;20039;-72
2022/04/10 08:35:51;;;;;;;10.25;4.10;;;;;;;;;;4955664;29;20038;-72
2022/04/10 08:38:17;;;;;;;7.18;3.58;;;;;;;;;;4953103;29;20171;-72
2022/04/10 08:40:45;;;;;;;5.55;3.22;;;;;;;;;;4952155;29;20020;-73
2022/04/10 08:43:11;;;;;;;5.47;3.00;;;;;;;;;;4952494;29;20019;-72
2022/04/10 08:45:38;;;;;;;4.55;2.22;;;;;;;;;;4952451;29;20061;-73
2022/04/10 08:48:05;;;;;;;5.30;2.00;;;;;;;;;;4955883;29;20019;-72
2022/04/10 08:50:32;;;;;;;4.45;1.88;;;;;;;;;;4953133;29;20027;-72
2022/04/10 08:52:58;;;;;;;3.90;1.95;;;;;;;;;;4952446;29;20029;-73
2022/04/10 08:55:28;;;;;;;4.63;1.88;;;;;;;;;;4952011;29;20370;-73
2022/04/10 08:57:54;;;;;;;3.13;1.85;;;;;;;;;;4952232;29;20485;-70
2022/04/10 09:00:23;;;;;;;2.40;1.90;;;;;;;;;;4953723;29;20027;-71
2022/04/10 09:02:52;;;;;;;7.97;2.80;;;;;;;;;;4955028;29;20465;-71
2022/04/10 09:05:19;;;;;;;3.03;1.80;;;;;;;;;;4952596;29;20535;-71
2022/04/10 09:08:05;;;;;;;2.67;1.73;;;;;;;;;;4952315;29;20271;-71
2022/04/10 09:10:31;;;;;;;4.90;1.90;;;;;;;;;;4951651;29;20033;-71
2022/04/10 09:12:58;;;;;;;4.28;1.70;;;;;;;;;;4951874;29;20489;-71
2022/04/10 09:15:32;;;;;;;5.35;1.75;;;;;;;;;;4953199;29;20027;-71
2022/04/10 09:17:58;;;;;;;8.48;1.85;;;;;;;;;;4954903;29;20021;-71
2022/04/10 09:20:24;;;;;;;8.00;1.90;;;;;;;;;;4952747;29;20058;-71
2022/04/10 09:22:51;;;;;;;7.55;1.67;;;;;;;;;;4952219;29;20030;-71
2022/04/10 09:25:17;;;;;;;3.53;1.33;;;;;;;;;;4951551;29;20043;-71
2022/04/10 09:27:48;;;;;;;5.13;1.60;;;;;;;;;;4951633;29;20490;-71
2022/04/10 09:30:15;;;;;;;2.35;1.52;;;;;;;;;;4953236;28;20027;-71
2022/04/10 09:32:44;;;;;;;2.45;1.48;;;;;;;;;;4953527;29;20019;-71
2022/04/10 09:35:12;;;;;;;2.92;1.58;;;;;;;;;;4952133;29;20031;-71
2022/04/10 09:37:46;;;;;;;2.03;1.48;;;;;;;;;;4951687;29;20022;-71
2022/04/10 09:40:29;;;;;;;2.33;1.40;;;;;;;;;;4942114;29;20024;-71
2022/04/10 09:43:04;;;;;;;2.17;1.70;;;;;;;;;;4951853;29;20031;-71
2022/04/10 09:45:40;;;;;;;3.75;1.80;;;;;;;;;;4951702;29;20044;-71
2022/04/10 09:48:22;;;;;;;1.55;1.33;;;;;;;;;;4939894;29;20026;-71
2022/04/10 09:50:51;;;;;;;7.40;1.67;;;;;;;;;;4953898;29;20489;-71
2022/04/10 09:53:18;;;;;;;2.72;1.55;;;;;;;;;;4953489;29;20448;-71
2022/04/10 09:55:51;;;;;;;3.70;1.67;;;;;;;;;;4951638;29;20019;-71
2022/04/10 09:58:18;;;;;;;1.75;1.50;;;;;;;;;;4951327;29;20027;-71
2022/04/10 10:00:45;;;;;;;3.05;1.33;;;;;;;;;;4951511;29;20020;-71
2022/04/10 10:03:12;;;;;;;2.00;1.15;;;;;;;;;;4953737;29;20031;-71
2022/04/10 10:05:38;;;;;;;2.28;1.40;;;;;;;;;;4952489;29;20035;-71
2022/04/10 10:08:06;;;;;;;2.42;1.38;;;;;;;;;;4950983;29;20023;-71
2022/04/10 10:10:33;;;;;;;1.70;1.27;;;;;;;;;;4951104;29;20031;-71
2022/04/10 10:13:01;;;;;;;2.63;1.40;;;;;;;;;;4950942;29;20506;-71
2022/04/10 10:15:28;;;;;;;4.85;1.42;;;;;;;;;;4951631;29;20023;-71
2022/04/10 10:17:54;;;;;;;2.35;1.30;;;;;;;;;;4954172;29;20033;-71
2022/04/10 10:20:21;;;;;;;3.63;1.45;;;;;;;;;;4951369;29;20488;-71
2022/04/10 10:22:48;;;;;;;2.83;1.30;;;;;;;;;;4950431;29;20035;-71
2022/04/10 10:25:18;;;;;;;4.57;1.30;;;;;;;;;;4950566;29;20039;-71
2022/04/10 10:28:06;;;;;;;2.08;1.40;;;;;;;;;;4950561;29;20490;-72
2022/04/10 10:30:47;;;;;;;2.40;1.60;;;;;;;;;;4950893;29;20024;-71
2022/04/10 10:33:18;;;;;;;6.07;2.10;;;;;;;;;;4938965;29;20399;-71
2022/04/10 10:35:49;;;;;;;2.53;1.00;;;;;;;;;;4954272;29;20023;-72
2022/04/10 10:38:22;;;;;;;1.00;0.80;;;;;;;;;;4950827;29;20035;-71
2022/04/10 10:40:49;;;;;;;2.85;0.95;;;;;;;;;;4950494;28;20030;-71
2022/04/10 10:43:20;;;;;;;1.35;0.70;;;;;;;;;;4950422;29;20031;-72
2022/04/10 10:45:46;;;;;;;;;;;;;;;;;;4950814;29;20038;-71
2022/04/10 10:48:18;;;;;;;0.82;0.73;;;;;;;;;;4952880;29;19911;-71
2022/04/10 10:50:45;;;;;;;1.73;0.65;;;;;;;;;;4952376;29;20049;-71
2022/04/10 10:53:12;;;;;;;1.88;0.80;;;;;;;;;;4950436;29;20027;-71
2022/04/10 10:55:45;;;;;;;1.40;0.70;;;;;;;;;;4950358;29;20016;-71
2022/04/10 10:58:14;;;;;;;1.73;0.88;;;;;;;;;;4950172;29;20038;-71
2022/04/10 11:00:41;;;;;;;1.45;0.70;;;;;;;;;;4950310;29;20500;-71
2022/04/10 11:03:10;;;;;;;2.65;0.80;;;;;;;;;;4953321;29;20027;-71
2022/04/10 11:05:38;;;;;;;1.85;0.90;;;;;;;;;;4951016;29;20035;-71
2022/04/10 11:08:13;;;;;;;1.48;0.98;;;;;;;;;;4950408;29;20031;-71
2022/04/10 11:10:59;;;;;;;1.42;1.00;;;;;;;;;;4950290;29;20015;-71
2022/04/10 11:13:37;;;;;;;2.28;0.95;;;;;;;;;;4936917;29;20408;-71
2022/04/10 11:16:10;;;;;;;0.90;0.63;;;;;;;;;;4943008;29;20028;-71
2022/04/10 11:18:41;;;;;;;1.40;0.82;;;;;;;;;;4950007;29;20020;-71
2022/04/10 11:21:15;;;;;;;1.80;1.00;;;;;;;;;;4938112;29;20077;-71
2022/04/10 11:23:45;;;;;;;1.70;1.15;;;;;;;;;;4951615;29;20085;-71
2022/04/10 11:26:21;;;;;;;1.47;1.00;;;;;;;;;;4950450;29;20516;-71
2022/04/10 11:29:07;;;;;;;0.88;0.82;;;;;;;;;;4949733;29;20047;-71
2022/04/10 11:31:33;;;;;;;1.23;1.05;;;;;;;;;;4949973;29;20023;-71
2022/04/10 11:34:17;;;;;;;1.77;0.93;;;;;;;;;;4949763;29;20030;-71
2022/04/10 11:36:50;;;;;;;1.30;0.90;;;;;;;;;;4949875;29;20489;-71
2022/04/10 11:39:16;;;;;;;1.15;0.80;;;;;;;;;;4951871;29;20023;-71
2022/04/10 11:41:43;;;;;;;1.10;0.80;;;;;;;;;;4951518;29;20021;-71
2022/04/10 11:44:10;;;;;;;1.88;0.70;;;;;;;;;;4950232;29;20039;-71
2022/04/10 11:46:37;;;;;;;1.48;0.90;;;;;;;;;;4949853;29;20078;-71
2022/04/10 11:49:03;;;;;;;1.05;0.70;;;;;;;;;;4949288;29;20533;-71
2022/04/10 11:51:30;;;;;;;1.42;0.90;;;;;;;;;;4944508;29;20030;-71
2022/04/10 11:53:58;;;;;;;1.38;0.75;;;;;;;;;;4955477;28;20440;-71
2022/04/10 11:56:24;;;;;;;2.78;0.85;;;;;;;;;;4954084;29;20030;-71
2022/04/10 11:58:51;;;;;;;1.35;0.70;;;;;;;;;;4953497;29;20038;-71
2022/04/10 12:01:19;;;;;;;2.22;1.02;;;;;;;;;;4953405;29;20031;-71
2022/04/10 12:03:49;;;;;;;2.20;1.20;;;;;;;;;;4953331;29;20027;-71
2022/04/10 12:06:20;;;;;;;1.00;0.65;;;;;;;;;;4955471;29;20067;-71
2022/04/10 12:08:47;;;;;;;1.15;0.82;;;;;;;;;;4955373;29;20040;-71
2022/04/10 12:11:13;;;;;;;1.95;0.80;;;;;;;;;;4953926;29;20042;-71
2022/04/10 12:13:40;;;;;;;0.90;0.80;;;;;;;;;;4953169;29;20027;-71
2022/04/10 12:16:16;;;;;;;1.15;0.80;;;;;;;;;;4953016;29;20034;-71
2022/04/10 12:18:56;;;;;;;1.40;0.70;;;;;;;;;;4952737;29;20030;-71
2022/04/10 12:21:24;;;;;;;1.65;0.70;;;;;;;;;;4954244;29;20382;-71
2022/04/10 12:24:00;;;;;;;3.65;0.82;;;;;;;;;;4955516;29;20039;-70
2022/04/10 12:26:27;;;;;;;1.58;0.85;;;;;;;;;;4953431;29;20090;-70
2022/04/10 12:28:54;;;;;;;2.28;0.85;;;;;;;;;;4952701;29;20043;-70
2022/04/10 12:31:21;;;;;;;0.75;0.68;;;;;;;;;;4952888;29;20035;-70
2022/04/10 12:33:47;;;;;;;1.83;0.80;;;;;;;;;;4952537;29;20408;-71
2022/04/10 12:36:17;;;;;;;0.60;0.60;;;;;;;;;;4955236;29;20011;-71
2022/04/10 12:38:43;;;;;;;1.35;0.70;;;;;;;;;;4954793;29;20050;-70
2022/04/10 12:41:09;;;;;;;1.73;1.17;;;;;;;;;;4953070;29;20027;-71
2022/04/10 12:43:36;;;;;;;0.95;0.80;;;;;;;;;;4952706;29;20023;-71
2022/04/10 12:46:12;;;;;;;0.70;0.70;;;;;;;;;;4952469;29;20035;-71
2022/04/10 12:48:39;;;;;;;1.05;0.70;;;;;;;;;;4952262;29;20023;-70
2022/04/10 12:51:09;;;;;;;2.60;0.68;;;;;;;;;;4955956;29;20016;-70
2022/04/10 12:53:36;;;;;;;1.65;0.70;;;;;;;;;;4956496;29;20430;-70
2022/04/10 12:56:02;;;;;;;1.73;1.05;;;;;;;;;;4956112;29;20043;-70
2022/04/10 12:58:29;;;;;;;0.77;0.70;;;;;;;;;;4952325;29;20388;-70
2022/04/10 13:00:56;;;;;;;0.82;0.70;;;;;;;;;;4952489;29;20090;-70
2022/04/10 13:03:24;;;;;;;1.48;0.90;;;;;;;;;;4953424;29;20027;-70
2022/04/10 13:05:57;;;;;;;1.20;0.88;;;;;;;;;;4953666;28;20515;-70
2022/04/10 13:08:24;;;;;;;1.45;0.80;;;;;;;;;;4952998;29;20066;-70
2022/04/10 13:10:51;;;;;;;0.60;0.60;;;;;;;;;;4952101;29;20034;-70
2022/04/10 13:13:17;;;;;;;1.88;0.90;;;;;;;;;;4952345;29;20042;-70
2022/04/10 13:15:43;;;;;;;2.40;0.95;;;;;;;;;;4952007;29;20401;-70
2022/04/10 13:18:09;;;;;;;1.05;0.88;;;;;;;;;;4954643;29;20019;-70
2022/04/10 13:20:37;;;;;;;1.15;0.90;;;;;;;;;;4953109;29;20031;-70
2022/04/10 13:23:04;;;;;;;1.17;0.80;;;;;;;;;;4952368;29;20023;-70
2022/04/10 13:25:35;;;;;;;2.30;0.63;;;;;;;;;;4952056;29;20035;-70
2022/04/10 13:28:02;;;;;;;7.47;0.90;;;;;;;;;;4951706;29;20526;-70
2022/04/10 13:30:29;;;;;;;1.02;0.80;;;;;;;;;;4952184;29;20038;-70
2022/04/10 13:32:59;;;;;;;1.05;0.77;;;;;;;;;;4955520;29;20032;-70
2022/04/10 13:35:25;;;;;;;1.05;0.60;;;;;;;;;;4952453;29;20023;-70
2022/04/10 13:37:52;;;;;;;0.95;0.73;;;;;;;;;;4951660;29;20023;-70
2022/04/10 13:40:18;;;;;;;1.73;0.77;;;;;;;;;;4951619;29;20400;-70
2022/04/10 13:42:45;;;;;;;2.20;0.70;;;;;;;;;;4951796;29;20529;-70
2022/04/10 13:45:12;;;;;;;1.65;0.70;;;;;;;;;;4953960;29;20046;-70
2022/04/10 13:47:38;;;;;;;1.67;0.88;;;;;;;;;;4953042;29;20019;-70
2022/04/10 13:50:05;;;;;;;0.93;0.65;;;;;;;;;;4954596;28;20400;-70
2022/04/10 13:52:32;;;;;;;0.77;0.60;;;;;;;;;;4950697;29;20028;-70
2022/04/10 13:54:59;;;;;;;2.70;0.65;;;;;;;;;;4951567;29;20492;-70
2022/04/10 13:57:25;;;;;;;2.28;0.70;;;;;;;;;;4952296;29;20035;-70
2022/04/10 13:59:52;;;;;;;1.02;0.68;;;;;;;;;;4953896;29;20497;-70
2022/04/10 14:02:18;;;;;;;2.05;0.95;;;;;;;;;;4952334;29;20031;-70
2022/04/10 14:04:45;;;;;;;1.60;0.60;;;;;;;;;;4951412;29;20023;-70
2022/04/10 14:07:11;;;;;;;0.70;0.60;;;;;;;;;;4951125;29;20037;-70
2022/04/10 14:09:38;;;;;;;0.60;0.60;;;;;;;;;;4951378;29;20501;-70
2022/04/10 14:12:06;;;;;;;0.80;0.70;;;;;;;;;;4939432;29;20029;-70
2022/04/10 14:14:33;;;;;;;1.60;0.63;;;;;;;;;;4951791;29;20031;-70
2022/04/10 14:17:00;;;;;;;0.75;0.60;;;;;;;;;;4950749;29;20035;-69
2022/04/10 14:19:27;;;;;;;0.70;0.63;;;;;;;;;;4937518;29;20022;-69
2022/04/10 14:21:53;;;;;;;1.50;0.65;;;;;;;;;;4950920;29;20035;-70
2022/04/10 14:24:19;;;;;;;0.95;0.68;;;;;;;;;;4952537;29;20023;-69
2022/04/10 14:26:46;;;;;;;2.03;0.60;;;;;;;;;;4953071;29;20031;-70
2022/04/10 14:29:13;;;;;;;0.85;0.70;;;;;;;;;;4950955;29;20042;-69
2022/04/10 14:31:46;;;;;;;1.33;0.75;;;;;;;;;;4950876;29;20028;-69
2022/04/10 14:34:13;;;;;;;1.80;1.00;;;;;;;;;;4937633;29;20074;-70
2022/04/10 14:36:40;;;;;;;1.38;0.80;;;;;;;;;;4950723;29;20016;-70
2022/04/10 14:39:06;;;;;;;1.48;0.70;;;;;;;;;;4954363;29;20023;-70
2022/04/10 14:41:32;;;;;;;1.55;0.60;;;;;;;;;;4951439;29;20030;-70
2022/04/10 14:43:59;;;;;;;2.13;0.77;;;;;;;;;;4950582;29;20026;-70
2022/04/10 14:46:25;;;;;;;0.85;0.60;;;;;;;;;;4950477;29;20412;-70
2022/04/10 14:48:52;;;;;;;2.70;0.60;;;;;;;;;;4950477;29;20408;-69
2022/04/10 14:51:18;;;;;;;1.20;0.60;;;;;;;;;;4952140;29;20027;-70